Time;durP1;ratioP1;P1;durP2;ratioP2;P2;SDS_P1;SDS_P2;PMS_P1;PMS_P2;Temp;Humidity;BMP_temperature;BMP_pressure;BME280_temperature;BME280_humidity;BME280_pressure;Samples;Min_cycle;Max_cycle;Signal;HPM_P1;HPM_P2
2021/05/04 00:00:24;;;;;;;2.37;2.00;;;;;;;3.16;64.10;96018.03;1754244;82;21619;-61
2021/05/04 00:02:53;;;;;;;2.77;1.60;;;;;;;3.17;63.75;96011.52;1754299;81;21114;-61
2021/05/04 00:05:21;;;;;;;3.20;2.30;;;;;;;3.20;64.97;96017.20;1754137;82;21181;-61
2021/05/04 00:07:48;;;;;;;4.83;2.77;;;;;;;3.14;65.21;96015.38;1754380;82;21129;-61
2021/05/04 00:10:30;;;;;;;4.83;2.30;;;;;;;3.10;64.31;96019.21;1754329;82;21145;-61
2021/05/04 00:12:58;;;;;;;4.43;2.60;;;;;;;3.02;65.94;96014.77;1754454;82;21298;-64
2021/05/04 00:15:25;;;;;;;4.13;2.00;;;;;;;3.00;66.14;96013.86;1754190;81;21129;-63
2021/05/04 00:17:53;;;;;;;2.53;2.10;;;;;;;3.01;65.28;96018.64;1754282;81;21579;-63
2021/05/04 00:20:21;;;;;;;3.90;1.80;;;;;;;2.97;65.79;96025.94;1754080;82;21133;-64
2021/05/04 00:22:49;;;;;;;2.63;1.80;;;;;;;2.95;66.65;96029.84;1754359;82;21575;-64
2021/05/04 00:25:17;;;;;;;6.27;2.37;;;;;;;2.98;66.54;96024.68;1754159;82;21149;-64
2021/05/04 00:27:44;;;;;;;2.53;1.87;;;;;;;3.08;66.48;96024.42;1754243;82;21611;-61
2021/05/04 00:30:13;;;;;;;2.83;1.83;;;;;;;3.08;66.14;96023.12;1754203;82;21157;-61
2021/05/04 00:32:41;;;;;;;2.10;1.40;;;;;;;3.16;66.00;96021.51;1754117;82;21141;-61
2021/05/04 00:35:10;;;;;;;2.40;2.07;;;;;;;3.19;65.45;96021.98;1754137;81;21153;-61
2021/05/04 00:37:37;;;;;;;2.70;2.10;;;;;;;3.18;65.54;96017.63;1754114;82;21602;-61
2021/05/04 00:40:07;;;;;;;2.90;2.53;;;;;;;3.18;65.33;96026.77;1754157;81;21157;-61
2021/05/04 00:42:35;;;;;;;4.83;2.57;;;;;;;3.15;65.65;96022.77;1754333;82;21145;-61
2021/05/04 00:45:05;;;;;;;2.10;1.63;;;;;;;3.07;65.99;96031.77;1754087;82;21604;-61
2021/05/04 00:47:32;;;;;;;2.93;1.50;;;;;;;2.99;65.32;96025.55;1754181;82;21126;-61
2021/05/04 00:50:00;;;;;;;2.00;1.63;;;;;;;2.94;65.29;96028.07;1754066;81;21137;-61
2021/05/04 00:52:28;;;;;;;2.67;2.30;;;;;;;2.95;65.27;96032.45;1754064;82;21575;-61
2021/05/04 00:54:57;;;;;;;5.60;2.17;;;;;;;2.97;66.27;96034.67;1754248;82;21588;-61
2021/05/04 00:57:26;;;;;;;4.67;2.70;;;;;;;2.89;65.71;96040.58;1754157;82;21182;-61
2021/05/04 00:59:55;;;;;;;3.57;2.43;;;;;;;2.72;66.63;96034.64;1726689;82;21105;-61
2021/05/04 01:02:23;;;;;;;2.97;1.60;;;;;;;2.68;68.08;96041.94;1754157;82;21137;-61
2021/05/04 01:04:51;;;;;;;1.83;1.40;;;;;;;2.62;67.54;96040.53;1754335;82;21152;-61
2021/05/04 01:07:19;;;;;;;3.53;2.00;;;;;;;2.56;69.08;96042.57;1754006;82;21157;-61
2021/05/04 01:09:47;;;;;;;3.83;2.00;;;;;;;2.59;68.24;96032.20;1754143;82;21150;-61
2021/05/04 01:12:15;;;;;;;2.87;1.63;;;;;;;2.63;67.50;96030.55;1754255;82;21141;-61
2021/05/04 01:14:43;;;;;;;2.37;2.00;;;;;;;2.73;66.46;96029.00;1754160;82;21157;-61
2021/05/04 01:17:10;;;;;;;2.63;1.97;;;;;;;2.76;68.27;96034.27;1754527;82;21283;-61
2021/05/04 01:19:39;;;;;;;3.87;2.90;;;;;;;2.72;67.20;96031.14;1754143;81;21558;-61
2021/05/04 01:22:07;;;;;;;8.30;4.47;;;;;;;2.69;67.06;96031.08;1754207;82;21153;-61
2021/05/04 01:24:36;;;;;;;7.23;4.10;;;;;;;2.66;66.84;96031.91;1754424;82;21170;-61
2021/05/04 01:27:05;;;;;;;7.07;3.17;;;;;;;2.64;67.41;96024.91;1754075;82;21110;-61
2021/05/04 01:29:33;;;;;;;5.83;3.00;;;;;;;2.62;68.09;96031.81;1754143;81;21146;-61
2021/05/04 01:32:01;;;;;;;5.70;2.70;;;;;;;2.64;67.64;96030.98;1754195;82;21153;-61
2021/05/04 01:34:28;;;;;;;6.43;2.90;;;;;;;2.67;68.57;96023.66;1754057;82;21141;-61
2021/05/04 01:36:56;;;;;;;9.93;4.43;;;;;;;2.66;67.14;96026.69;1754110;81;21583;-61
2021/05/04 01:39:30;;;;;;;14.77;6.20;;;;;;;2.46;67.77;96031.52;1754548;81;21295;-61
2021/05/04 01:41:58;;;;;;;9.88;4.95;;;;;;;2.45;67.51;96036.29;1745712;82;21162;-61
2021/05/04 01:44:25;;;;;;;8.47;3.87;;;;;;;2.44;68.58;96037.11;1754154;82;21587;-61
2021/05/04 01:46:53;;;;;;;3.47;2.37;;;;;;;2.46;68.78;96035.42;1754114;81;21124;-61
2021/05/04 01:49:21;;;;;;;10.53;4.90;;;;;;;2.46;69.24;96033.25;1754020;82;21169;-61
2021/05/04 01:51:48;;;;;;;8.60;4.63;;;;;;;2.43;68.89;96041.88;1743604;81;21303;-61
2021/05/04 01:54:16;;;;;;;11.07;5.03;;;;;;;2.32;68.98;96033.86;1740160;82;21695;-61
2021/05/04 01:56:43;;;;;;;10.37;5.60;;;;;;;2.30;68.93;96039.45;1739996;81;21557;-61
2021/05/04 01:59:11;;;;;;;6.93;3.80;;;;;;;2.29;68.49;96032.91;1740296;82;21276;-61
2021/05/04 02:01:40;;;;;;;6.40;3.20;;;;;;;2.21;69.26;96034.48;1740116;82;21129;-61
2021/05/04 02:04:07;;;;;;;6.07;3.70;;;;;;;2.13;69.40;96030.42;1740074;82;21153;-61
2021/05/04 02:06:35;;;;;;;19.93;6.57;;;;;;;2.07;69.95;96030.30;1740277;82;21153;-61
2021/05/04 02:09:05;;;;;;;29.17;10.83;;;;;;;1.97;69.63;96033.12;1739959;81;21454;-61
2021/05/04 02:11:33;;;;;;;22.13;10.57;;;;;;;1.89;70.39;96032.97;1740106;82;21091;-61
2021/05/04 02:14:02;;;;;;;11.97;6.30;;;;;;;1.92;70.46;96034.75;1740241;82;21742;-61
2021/05/04 02:16:30;;;;;;;41.87;19.17;;;;;;;1.91;71.25;96033.84;1740044;82;21161;-61
2021/05/04 02:18:58;;;;;;;23.73;10.50;;;;;;;1.97;70.55;96031.83;1740196;81;21119;-61
2021/05/04 02:21:25;;;;;;;7.17;3.90;;;;;;;2.02;70.38;96038.01;1740168;82;21273;-61
2021/05/04 02:23:53;;;;;;;7.03;3.17;;;;;;;2.08;69.54;96036.83;1740062;82;21699;-61
2021/05/04 02:26:21;;;;;;;4.00;2.70;;;;;;;2.16;69.61;96035.69;1740675;82;21110;-61
2021/05/04 02:28:49;;;;;;;2.77;2.07;;;;;;;2.18;69.31;96030.09;1740258;82;21572;-61
2021/05/04 02:31:17;;;;;;;8.27;4.60;;;;;;;2.11;69.54;96034.70;1740128;82;21264;-61
2021/05/04 02:33:44;;;;;;;26.07;9.07;;;;;;;1.91;70.24;96039.48;1740152;82;21710;-61
2021/05/04 02:36:12;;;;;;;99.13;30.27;;;;;;;1.75;70.95;96042.61;1739926;82;21283;-61
2021/05/04 02:38:41;;;;;;;8.00;2.90;;;;;;;1.66;71.29;96033.76;1740121;82;21110;-61
2021/05/04 02:41:09;;;;;;;8.07;3.27;;;;;;;1.73;70.86;96042.56;1740559;82;21141;-61
2021/05/04 02:43:37;;;;;;;3.77;2.43;;;;;;;1.73;71.05;96039.95;1740078;82;21136;-61
2021/05/04 02:46:06;;;;;;;3.43;2.50;;;;;;;1.88;70.33;96044.63;1740173;82;21152;-61
2021/05/04 02:48:39;;;;;;;7.60;2.73;;;;;;;1.96;69.44;96044.36;1740232;82;21296;-61
2021/05/04 02:51:09;;;;;;;5.22;2.87;;;;;;;1.90;69.73;96048.15;1742791;81;21354;-62
2021/05/04 02:53:38;;;;;;;3.63;2.10;;;;;;;1.89;69.40;96050.27;1748209;82;21140;-61
2021/05/04 02:56:08;;;;;;;2.97;2.27;;;;;;;1.90;69.30;96057.26;1748494;82;21142;-61
2021/05/04 02:58:36;;;;;;;3.93;2.30;;;;;;;1.92;68.78;96045.16;1748243;82;21177;-61
2021/05/04 03:01:05;;;;;;;2.90;1.80;;;;;;;1.97;68.47;96051.78;1748511;82;21138;-61
2021/05/04 03:03:34;;;;;;;3.83;2.23;;;;;;;1.85;69.83;96049.34;1748352;82;21146;-61
2021/05/04 03:06:04;;;;;;;4.40;2.50;;;;;;;1.76;70.00;96054.76;1718914;82;21620;-61
2021/05/04 03:08:33;;;;;;;3.87;2.30;;;;;;;1.70;69.99;96053.77;1748149;81;21145;-61
2021/05/04 03:11:01;;;;;;;3.47;2.33;;;;;;;1.70;69.80;96052.91;1748424;82;21141;-61
2021/05/04 03:13:32;;;;;;;3.80;2.30;;;;;;;1.73;69.29;96049.94;1748298;82;21595;-61
2021/05/04 03:16:01;;;;;;;4.50;2.60;;;;;;;1.75;69.46;96057.78;1748392;82;21142;-61
2021/05/04 03:18:28;;;;;;;2.93;2.60;;;;;;;1.78;68.96;96053.95;1748285;82;21604;-61
2021/05/04 03:20:56;;;;;;;2.87;2.13;;;;;;;1.83;68.88;96061.86;1748062;82;21138;-61
2021/05/04 03:23:25;;;;;;;5.93;3.13;;;;;;;1.72;69.44;96062.50;1748126;82;21555;-61
2021/05/04 03:25:53;;;;;;;4.27;3.30;;;;;;;1.66;69.76;96061.07;1748126;82;21141;-62
2021/05/04 03:28:21;;;;;;;5.57;3.20;;;;;;;1.64;70.06;96058.84;1748450;81;21161;-61
2021/05/04 03:30:48;;;;;;;10.30;3.70;;;;;;;1.66;70.68;96064.06;1748195;82;21153;-61
2021/05/04 03:33:16;;;;;;;7.40;2.93;;;;;;;1.66;70.42;96060.16;1748180;82;21576;-61
2021/05/04 03:35:44;;;;;;;5.53;2.50;;;;;;;1.65;70.83;96055.82;1748283;82;21583;-61
2021/05/04 03:38:12;;;;;;;2.77;2.20;;;;;;;1.65;71.22;96059.30;1748085;81;21146;-61
2021/05/04 03:40:40;;;;;;;3.77;1.87;;;;;;;1.61;70.59;96060.48;1748222;82;21563;-61
2021/05/04 03:43:08;;;;;;;2.97;2.10;;;;;;;1.64;69.95;96060.58;1748358;82;21184;-61
2021/05/04 03:45:36;;;;;;;1.97;1.60;;;;;;;1.60;70.11;96063.51;1748280;82;21153;-61
2021/05/04 03:48:06;;;;;;;3.60;2.50;;;;;;;1.63;70.53;96061.41;1748251;82;21157;-61
2021/05/04 03:50:34;;;;;;;3.87;3.13;;;;;;;1.63;71.71;96055.77;1748237;82;21134;-61
2021/05/04 03:53:02;;;;;;;3.13;2.27;;;;;;;1.78;71.77;96060.87;1748104;82;21165;-61
2021/05/04 03:55:30;;;;;;;9.83;3.70;;;;;;;1.77;71.89;96068.24;1748092;82;21133;-61
2021/05/04 03:57:57;;;;;;;14.50;5.77;;;;;;;1.75;72.60;96064.72;1718733;82;21118;-61
2021/05/04 04:00:25;;;;;;;17.00;5.90;;;;;;;1.86;72.40;96065.39;1748185;82;21149;-61
2021/05/04 04:02:52;;;;;;;18.57;6.40;;;;;;;1.95;72.61;96068.64;1748229;82;21141;-61
2021/05/04 04:05:20;;;;;;;20.90;7.27;;;;;;;2.01;71.60;96068.77;1748391;82;21142;-61
2021/05/04 04:07:48;;;;;;;11.03;4.77;;;;;;;2.13;71.63;96069.03;1748409;82;21149;-61
2021/05/04 04:10:15;;;;;;;7.93;4.50;;;;;;;2.26;71.95;96068.00;1748560;82;21136;-61
2021/05/04 04:12:43;;;;;;;8.43;4.23;;;;;;;2.34;71.32;96062.52;1748323;82;21146;-61
2021/05/04 04:15:12;;;;;;;9.67;6.03;;;;;;;2.45;71.05;96071.88;1748503;82;21134;-61
2021/05/04 04:17:40;;;;;;;8.67;6.40;;;;;;;2.55;70.02;96072.52;1748274;82;21596;-61
2021/05/04 04:20:09;;;;;;;8.47;5.17;;;;;;;2.64;69.37;96076.58;1748345;81;21152;-61
2021/05/04 04:22:38;;;;;;;6.83;5.00;;;;;;;2.69;69.36;96076.68;1748092;82;21576;-61
2021/05/04 04:25:08;;;;;;;7.30;4.90;;;;;;;2.73;69.50;96085.02;1748351;82;21129;-61
2021/05/04 04:27:37;;;;;;;7.57;5.10;;;;;;;2.76;69.50;96077.26;1748399;81;21122;-61
2021/05/04 04:30:06;;;;;;;14.73;8.33;;;;;;;2.83;70.05;96075.23;1748370;82;21129;-61
2021/05/04 04:32:34;;;;;;;14.70;7.80;;;;;;;2.89;69.46;96068.81;1748506;81;21118;-61
2021/05/04 04:35:04;;;;;;;12.63;6.07;;;;;;;2.97;68.97;96069.86;1748706;82;21144;-61
2021/05/04 04:37:31;;;;;;;10.90;5.27;;;;;;;3.10;68.61;96067.44;1748087;82;21154;-61
2021/05/04 04:39:59;;;;;;;9.20;4.90;;;;;;;3.19;68.29;96076.74;1748298;82;21580;-61
2021/05/04 04:42:27;;;;;;;9.57;5.13;;;;;;;3.25;68.58;96072.92;1719265;82;21133;-61
2021/05/04 04:44:54;;;;;;;8.83;4.93;;;;;;;3.35;67.70;96066.14;1748270;82;21608;-61
2021/05/04 04:47:22;;;;;;;6.40;4.33;;;;;;;3.44;67.39;96067.61;1748330;82;21142;-61
2021/05/04 04:49:50;;;;;;;5.13;3.80;;;;;;;3.54;66.41;96063.42;1748388;82;21624;-61
2021/05/04 04:52:18;;;;;;;8.03;5.27;;;;;;;3.64;65.55;96062.28;1743180;81;21181;-61
2021/05/04 04:54:46;;;;;;;11.63;6.23;;;;;;;3.75;65.14;96058.52;1740317;82;21170;-61
2021/05/04 04:57:14;;;;;;;10.70;6.20;;;;;;;3.83;65.90;96060.84;1739989;82;21145;-61
2021/05/04 04:59:43;;;;;;;9.70;5.93;;;;;;;3.94;65.59;96055.77;1740323;82;21142;-61
2021/05/04 05:02:10;;;;;;;9.80;5.30;;;;;;;4.07;64.57;96064.22;1740174;82;21134;-61
2021/05/04 05:04:37;;;;;;;6.80;3.93;;;;;;;4.17;63.97;96060.44;1739992;82;21296;-61
2021/05/04 05:07:08;;;;;;;7.53;3.93;;;;;;;4.28;64.90;96055.82;1739909;82;21616;-62
2021/05/04 05:09:36;;;;;;;4.83;3.33;;;;;;;4.41;64.39;96060.77;1740567;81;21138;-61
2021/05/04 05:12:06;;;;;;;5.67;3.63;;;;;;;4.55;64.43;96053.09;1740245;82;21284;-61
2021/05/04 05:14:36;;;;;;;7.37;4.00;;;;;;;4.68;63.71;96046.27;1740311;82;21291;-61
2021/05/04 05:17:04;;;;;;;11.00;5.40;;;;;;;4.82;63.12;96053.84;1740286;82;21299;-61
2021/05/04 05:19:32;;;;;;;6.53;4.50;;;;;;;4.95;63.39;96050.92;1740017;82;21284;-61
2021/05/04 05:22:03;;;;;;;5.47;4.03;;;;;;;5.12;63.30;96048.49;1740286;82;21300;-61
2021/05/04 05:24:31;;;;;;;5.07;3.80;;;;;;;5.29;62.47;96046.02;1740159;82;21533;-61
2021/05/04 05:27:02;;;;;;;7.03;4.53;;;;;;;5.46;62.78;96040.50;1740379;82;21114;-61
2021/05/04 05:29:31;;;;;;;7.03;4.43;;;;;;;5.62;62.21;96036.28;1740155;82;21272;-61
2021/05/04 05:31:59;;;;;;;5.73;4.40;;;;;;;5.77;61.98;96031.16;1740138;82;21295;-61
2021/05/04 05:34:27;;;;;;;6.67;4.43;;;;;;;5.94;62.07;96042.20;1740159;81;21268;-61
2021/05/04 05:36:55;;;;;;;5.80;3.40;;;;;;;6.13;61.51;96040.58;1740170;82;21715;-61
2021/05/04 05:39:23;;;;;;;5.77;4.70;;;;;;;6.33;61.03;96041.56;1739940;81;21571;-62
2021/05/04 05:41:53;;;;;;;5.70;3.93;;;;;;;6.51;60.69;96042.08;1740094;82;21288;-61
2021/05/04 05:44:20;;;;;;;6.53;3.50;;;;;;;6.69;60.31;96032.09;1740089;82;21307;-61
2021/05/04 05:46:51;;;;;;;5.50;3.20;;;;;;;6.83;58.72;96032.13;1740142;82;21323;-61
2021/05/04 05:49:18;;;;;;;5.40;3.27;;;;;;;7.01;59.69;96026.08;1740144;82;21327;-61
2021/05/04 05:51:45;;;;;;;4.70;3.27;;;;;;;7.16;59.27;96027.41;1742162;81;21158;-61
2021/05/04 05:54:13;;;;;;;4.50;3.37;;;;;;;7.33;58.45;96028.31;1748187;82;21545;-61
2021/05/04 05:56:41;;;;;;;4.00;3.47;;;;;;;7.49;58.64;96022.63;1748269;81;21154;-61
2021/05/04 05:59:10;;;;;;;6.23;3.40;;;;;;;7.71;58.53;96023.50;1748435;82;21133;-61
2021/05/04 06:01:37;;;;;;;5.23;3.07;;;;;;;7.91;57.38;96016.02;1748415;82;21141;-61
2021/05/04 06:04:06;;;;;;;5.00;3.57;;;;;;;8.10;56.62;96018.19;1748644;81;21125;-62
2021/05/04 06:06:33;;;;;;;5.00;3.33;;;;;;;8.26;54.20;96014.63;1748651;82;21142;-62
2021/05/04 06:09:01;;;;;;;4.50;3.70;;;;;;;8.40;53.63;96010.24;1748197;82;21141;-61
2021/05/04 06:11:29;;;;;;;5.37;3.37;;;;;;;8.56;54.77;96012.36;1748235;81;21144;-61
2021/05/04 06:14:10;;;;;;;7.23;3.63;;;;;;;8.68;53.26;96011.89;1748548;82;21145;-61
2021/05/04 06:16:38;;;;;;;10.00;4.20;;;;;;;8.87;53.51;96008.30;1748181;82;21184;-62
2021/05/04 06:19:06;;;;;;;9.77;4.20;;;;;;;8.99;47.37;96008.20;1748454;82;21624;-62
2021/05/04 06:21:34;;;;;;;9.63;3.60;;;;;;;9.15;50.56;96014.27;1748157;81;21128;-62
2021/05/04 06:24:02;;;;;;;6.87;3.03;;;;;;;9.29;45.16;96008.90;1748063;82;21599;-62
2021/05/04 06:26:30;;;;;;;7.43;3.17;;;;;;;9.41;45.81;96001.36;1748299;82;21186;-62
2021/05/04 06:28:57;;;;;;;7.53;3.17;;;;;;;9.53;45.99;96000.83;1748101;82;21126;-61
2021/05/04 06:31:26;;;;;;;8.00;3.70;;;;;;;9.71;47.41;96001.11;1748322;82;21138;-62
2021/05/04 06:33:54;;;;;;;7.17;3.20;;;;;;;9.85;46.58;95999.69;1748215;82;21588;-61
2021/05/04 06:36:21;;;;;;;5.20;3.00;;;;;;;9.99;44.35;95999.54;1748068;82;21647;-62
2021/05/04 06:38:49;;;;;;;6.40;3.80;;;;;;;10.12;44.84;95995.88;1748067;82;21172;-62
2021/05/04 06:41:16;;;;;;;4.97;3.20;;;;;;;10.23;41.61;96000.16;1748303;82;21176;-61
2021/05/04 06:43:44;;;;;;;3.37;2.43;;;;;;;10.30;41.96;95993.52;1748180;81;21132;-62
2021/05/04 06:46:12;;;;;;;3.13;2.53;;;;;;;10.27;37.46;95992.20;1748506;82;21138;-61
2021/05/04 06:48:40;;;;;;;7.87;3.70;;;;;;;10.32;41.41;95990.42;1748228;82;21105;-61
2021/05/04 06:51:07;;;;;;;4.27;2.43;;;;;;;10.48;40.57;95988.51;1748139;82;21444;-61
2021/05/04 06:53:36;;;;;;;4.13;2.80;;;;;;;10.59;41.72;95987.05;1753105;82;21153;-62
2021/05/04 06:56:04;;;;;;;2.80;2.37;;;;;;;10.69;39.27;95981.22;1754049;82;21563;-62
2021/05/04 06:58:32;;;;;;;4.27;2.60;;;;;;;10.79;40.46;95979.75;1754252;81;21174;-62
2021/05/04 07:01:00;;;;;;;2.83;2.50;;;;;;;10.94;38.89;95991.00;1754073;82;21129;-62
2021/05/04 07:03:28;;;;;;;5.60;2.67;;;;;;;10.90;36.16;95982.23;1726532;82;21132;-62
2021/05/04 07:05:56;;;;;;;4.97;2.90;;;;;;;10.74;36.19;95994.77;1754406;82;21161;-61
2021/05/04 07:08:24;;;;;;;5.23;3.30;;;;;;;10.75;36.89;95991.67;1753977;82;21145;-61
2021/05/04 07:10:52;;;;;;;4.47;3.27;;;;;;;10.87;37.78;95987.56;1754129;81;21551;-61
2021/05/04 07:13:20;;;;;;;4.37;3.07;;;;;;;11.02;36.66;95998.36;1754157;82;21109;-61
2021/05/04 07:15:47;;;;;;;2.60;2.07;;;;;;;11.11;36.73;95992.93;1754064;82;21117;-62
2021/05/04 07:18:16;;;;;;;3.97;2.80;;;;;;;11.30;37.28;95984.76;1753942;82;21125;-62
2021/05/04 07:20:44;;;;;;;5.90;3.30;;;;;;;11.36;36.32;95984.66;1754247;82;21134;-62
2021/05/04 07:23:13;;;;;;;4.47;2.97;;;;;;;11.38;35.65;95983.73;1754261;82;21188;-62
2021/05/04 07:25:41;;;;;;;4.13;2.77;;;;;;;11.49;36.91;95974.34;1727111;82;21591;-62
2021/05/04 07:28:10;;;;;;;3.53;2.80;;;;;;;11.63;36.51;95969.67;1754241;82;21161;-62
2021/05/04 07:30:42;;;;;;;3.33;2.87;;;;;;;11.78;37.34;95970.33;1754268;81;21591;-61
2021/05/04 07:33:09;;;;;;;5.57;3.10;;;;;;;11.96;36.27;95975.31;1754118;82;21169;-61
2021/05/04 07:35:37;;;;;;;3.70;2.70;;;;;;;12.07;36.19;95973.79;1754239;81;21106;-61
2021/05/04 07:38:05;;;;;;;4.27;3.10;;;;;;;12.13;36.42;95968.41;1753874;82;21592;-62
2021/05/04 07:40:32;;;;;;;3.37;2.47;;;;;;;12.23;35.56;95964.68;1754166;82;21559;-61
2021/05/04 07:43:00;;;;;;;2.87;2.53;;;;;;;12.33;37.79;95960.95;1754315;82;21136;-61
2021/05/04 07:45:28;;;;;;;4.67;2.80;;;;;;;12.48;35.62;95959.78;1754536;82;21177;-61
2021/05/04 07:47:58;;;;;;;4.20;2.80;;;;;;;12.40;33.72;95963.47;1754340;82;21141;-61
2021/05/04 07:50:28;;;;;;;2.70;2.50;;;;;;;12.31;35.37;95968.50;1754279;82;21167;-62
2021/05/04 07:52:56;;;;;;;2.87;2.40;;;;;;;12.30;34.16;95963.66;1754010;81;21183;-61
2021/05/04 07:55:25;;;;;;;3.40;2.70;;;;;;;12.27;35.60;95961.09;1754129;82;21106;-61
2021/05/04 07:57:53;;;;;;;4.20;2.87;;;;;;;12.33;33.40;95964.05;1754166;82;21188;-61
2021/05/04 08:00:20;;;;;;;29.67;13.20;;;;;;;12.45;34.79;95962.95;1726580;82;21148;-61
2021/05/04 08:02:48;;;;;;;61.53;32.27;;;;;;;12.49;32.74;95956.67;1754888;82;21160;-61
2021/05/04 08:05:17;;;;;;;15.07;8.30;;;;;;;12.59;33.28;95957.36;1754271;82;21575;-61
2021/05/04 08:07:44;;;;;;;6.00;2.80;;;;;;;12.78;32.54;95959.59;1754177;82;21157;-61
2021/05/04 08:10:12;;;;;;;3.53;2.67;;;;;;;13.01;33.61;95955.58;1754197;82;21161;-61
2021/05/04 08:12:40;;;;;;;4.37;2.70;;;;;;;13.24;32.92;95952.40;1754293;82;21599;-61
2021/05/04 08:15:15;;;;;;;3.10;2.27;;;;;;;13.34;31.80;95957.93;1754154;81;21125;-61
2021/05/04 08:17:40;;;;;;;4.77;3.00;;;;;;;13.36;31.19;95957.45;1753657;82;21131;-61
2021/05/04 08:20:11;;;;;;;3.73;2.50;;;;;;;13.41;30.74;95945.42;1754174;82;21149;-61
2021/05/04 08:22:38;;;;;;;3.87;2.90;;;;;;;13.73;32.71;95950.36;1754092;81;21129;-61
2021/05/04 08:25:08;;;;;;;2.80;2.37;;;;;;;13.70;31.24;95956.61;1754062;82;21158;-61
2021/05/04 08:27:35;;;;;;;4.27;2.33;;;;;;;13.52;29.68;95943.82;1754339;81;21169;-61
2021/05/04 08:30:05;;;;;;;2.30;1.90;;;;;;;13.73;30.35;95954.34;1754161;82;21165;-61
2021/05/04 08:32:34;;;;;;;2.00;1.43;;;;;;;13.64;28.44;95958.11;1754211;82;21126;-61
2021/05/04 08:35:02;;;;;;;4.37;2.60;;;;;;;13.18;28.38;95955.20;1754126;82;21157;-61
2021/05/04 08:37:29;;;;;;;3.83;2.93;;;;;;;13.17;29.93;95951.66;1754228;81;21599;-61
2021/05/04 08:39:58;;;;;;;5.77;3.83;;;;;;;13.27;30.25;95940.89;1754259;82;21117;-61
2021/05/04 08:42:26;;;;;;;3.77;2.70;;;;;;;13.55;30.78;95936.66;1754156;82;21590;-61
2021/05/04 08:44:54;;;;;;;1.90;1.53;;;;;;;13.71;29.71;95938.48;1754335;82;21106;-61
2021/05/04 08:47:23;;;;;;;2.60;2.23;;;;;;;13.87;30.11;95930.13;1727067;82;21125;-61
2021/05/04 08:49:52;;;;;;;4.77;2.73;;;;;;;13.87;28.67;95933.65;1754309;82;21516;-61
2021/05/04 08:52:20;;;;;;;3.07;2.20;;;;;;;13.82;29.13;95924.94;1752014;81;21170;-61
2021/05/04 08:54:48;;;;;;;5.33;2.70;;;;;;;13.98;28.91;95924.94;1740212;82;21141;-61
2021/05/04 08:57:16;;;;;;;4.53;2.60;;;;;;;14.07;28.64;95927.82;1740283;82;21587;-61
2021/05/04 08:59:44;;;;;;;4.03;2.70;;;;;;;14.01;30.82;95933.27;1740175;81;21296;-61
2021/05/04 09:02:12;;;;;;;4.30;2.90;;;;;;;13.93;29.30;95924.66;1740124;82;21272;-61
2021/05/04 09:04:42;;;;;;;3.40;2.60;;;;;;;14.00;28.36;95920.93;1740020;82;21307;-61
2021/05/04 09:07:32;;;;;;;2.87;2.20;;;;;;;14.23;29.51;95909.69;1740121;82;21279;-61
2021/05/04 09:10:10;;;;;;;2.53;2.33;;;;;;;14.34;27.88;95908.95;1738612;82;21300;-61
2021/05/04 09:12:40;;;;;;;3.47;3.17;;;;;;;14.49;28.18;95904.98;1739798;82;21264;-61
2021/05/04 09:16:01;;;;;;;4.17;2.17;;;;;;;14.44;28.64;95906.91;1740137;81;21138;-61
2021/05/04 09:21:32;;;;;;;2.73;2.40;;;;;;;14.51;31.25;95900.47;1740673;81;21091;-61
2021/05/04 09:24:27;;;;;;;5.83;2.20;;;;;;;14.81;32.01;95896.53;1739942;82;21292;-61
2021/05/04 09:27:16;;;;;;;3.70;2.30;;;;;;;15.12;31.82;95891.16;1740236;82;21260;-61
2021/05/04 09:30:01;;;;;;;4.27;2.10;;;;;;;15.12;29.51;95881.39;1734900;82;21713;-61
2021/05/04 09:32:32;;;;;;;3.03;2.40;;;;;;;14.90;26.45;95871.02;1738057;82;21229;-61
2021/05/04 09:35:03;;;;;;;2.80;2.25;;;;;;;14.96;27.71;95873.95;1740269;82;21268;-61
2021/05/04 09:37:43;;;;;;;3.07;2.03;;;;;;;15.18;27.50;95876.80;1740177;82;21726;-61
2021/05/04 09:40:28;;;;;;;2.63;1.93;;;;;;;15.47;28.14;95879.38;1740074;82;21300;-61
2021/05/04 09:43:17;;;;;;;3.70;2.40;;;;;;;15.77;29.04;95868.63;1740322;82;21272;-61
2021/05/04 09:45:58;;;;;;;3.47;2.17;;;;;;;15.95;26.43;95867.12;1740032;82;21269;-61
2021/05/04 09:48:34;;;;;;;3.67;2.87;;;;;;;16.09;27.86;95863.52;1740190;82;21679;-61
2021/05/04 09:51:18;;;;;;;2.90;2.07;;;;;;;16.25;27.51;95862.48;1740094;82;21288;-61
2021/05/04 09:53:59;;;;;;;3.60;1.87;;;;;;;16.41;27.46;95856.16;1739973;82;21151;-61
2021/05/04 09:56:33;;;;;;;3.07;2.10;;;;;;;16.63;31.12;95857.08;1739654;82;21264;-61
2021/05/04 09:59:02;;;;;;;2.67;1.90;;;;;;;16.74;25.09;95847.80;1740070;82;21711;-61
2021/05/04 10:01:31;;;;;;;2.60;2.30;;;;;;;16.77;28.04;95851.68;1740125;82;21288;-61
2021/05/04 10:04:00;;;;;;;2.10;1.90;;;;;;;16.72;25.31;95848.33;1740291;82;21292;-61
2021/05/04 10:06:29;;;;;;;3.67;2.30;;;;;;;16.79;25.87;95846.73;1740446;82;21149;-61
2021/05/04 10:08:57;;;;;;;2.57;2.20;;;;;;;16.74;25.29;95843.34;1740046;82;21291;-62
2021/05/04 10:11:26;;;;;;;3.40;2.13;;;;;;;16.62;28.61;95851.80;1740209;82;21134;-61
2021/05/04 10:13:57;;;;;;;2.97;2.30;;;;;;;16.66;29.72;95844.97;1740192;82;21577;-61
2021/05/04 10:16:31;;;;;;;5.73;1.90;;;;;;;16.89;28.71;95834.38;1740096;82;21276;-61
2021/05/04 10:19:03;;;;;;;2.77;2.00;;;;;;;17.06;30.64;95830.11;1740094;82;21264;-61
2021/05/04 10:21:31;;;;;;;3.30;2.60;;;;;;;17.12;29.75;95821.47;1740034;82;21134;-61
2021/05/04 10:23:59;;;;;;;2.30;2.07;;;;;;;17.27;26.00;95815.50;1740077;82;21110;-62
2021/05/04 10:26:31;;;;;;;3.40;2.20;;;;;;;17.13;25.09;95812.52;1740031;82;21129;-61
2021/05/04 10:29:05;;;;;;;3.83;2.20;;;;;;;17.10;25.38;95809.52;1740024;82;21284;-61
2021/05/04 10:31:44;;;;;;;4.60;2.67;;;;;;;17.05;25.98;95803.50;1740105;82;21312;-61
2021/05/04 10:34:30;;;;;;;3.23;2.37;;;;;;;16.95;25.07;95813.66;1739950;81;21134;-62
2021/05/04 10:37:14;;;;;;;3.72;2.12;;;;;;;17.02;27.10;95800.50;1740071;82;21255;-61
2021/05/04 10:39:47;;;;;;;2.37;2.10;;;;;;;17.01;25.07;95796.55;1718801;82;21682;-61
2021/05/04 10:42:36;;;;;;;2.60;2.40;;;;;;;16.73;24.41;95811.41;1740028;82;21125;-62
2021/05/04 10:45:08;;;;;;;2.60;2.40;;;;;;;16.71;25.40;95804.83;1740347;82;21694;-61
2021/05/04 10:47:47;;;;;;;2.60;2.20;;;;;;;16.77;28.91;95790.39;1740100;82;21295;-61
2021/05/04 10:50:29;;;;;;;2.60;2.00;;;;;;;17.05;26.85;95784.38;1740024;82;21702;-61
2021/05/04 10:53:00;;;;;;;;;;;;;;;17.33;26.47;95773.89;1733943;81;21805;-62
2021/05/04 10:55:53;;;;;;;9.07;2.30;;;;;;;17.33;24.18;95764.55;1739961;82;20150;-61
2021/05/04 10:58:27;;;;;;;3.37;2.00;;;;;;;17.32;26.23;95768.64;1740121;82;21149;-61
2021/05/04 11:01:03;;;;;;;2.67;1.98;;;;;;;17.37;25.79;95763.98;1740408;82;21253;-61
2021/05/04 11:03:37;;;;;;;3.00;1.80;;;;;;;17.35;24.45;95762.70;1738306;82;21142;-61
2021/05/04 11:06:09;;;;;;;2.27;1.73;;;;;;;17.50;25.12;95767.38;1740254;82;21264;-61
2021/05/04 11:08:47;;;;;;;2.00;1.80;;;;;;;17.77;26.47;95767.59;1740506;82;21248;-61
2021/05/04 11:11:45;;;;;;;1.70;1.60;;;;;;;17.79;23.98;95760.36;1717952;82;21115;-61
2021/05/04 11:14:23;;;;;;;3.20;1.70;;;;;;;17.88;24.72;95754.66;1740146;82;21276;-61
2021/05/04 11:16:59;;;;;;;3.00;1.60;;;;;;;17.92;22.87;95748.25;1739928;82;21138;-62
2021/05/04 11:19:32;;;;;;;3.10;1.70;;;;;;;17.89;24.09;95749.26;1740173;82;21146;-61
2021/05/04 11:22:07;;;;;;;2.80;1.92;;;;;;;18.01;23.40;95741.63;1740730;82;21122;-62
2021/05/04 11:24:42;;;;;;;1.90;1.70;;;;;;;17.99;23.43;95736.34;1740042;82;21086;-62
2021/05/04 11:27:19;;;;;;;3.00;1.60;;;;;;;17.93;22.69;95737.96;1740297;82;21687;-61
2021/05/04 11:29:49;;;;;;;2.53;1.80;;;;;;;17.94;22.86;95735.67;1740227;82;21249;-62
2021/05/04 11:32:28;;;;;;;3.20;1.57;;;;;;;18.00;22.44;95738.56;1740126;82;21288;-61
2021/05/04 11:35:00;;;;;;;2.15;1.80;;;;;;;18.14;23.89;95730.33;1737366;82;21697;-61
2021/05/04 11:37:36;;;;;;;1.95;1.67;;;;;;;18.47;26.18;95727.45;1740337;82;21165;-62
2021/05/04 11:40:24;;;;;;;2.33;1.57;;;;;;;18.56;23.59;95721.20;1740210;82;21695;-61
2021/05/04 11:42:59;;;;;;;3.17;1.72;;;;;;;18.90;24.43;95720.95;1740376;82;21268;-61
2021/05/04 11:45:31;;;;;;;2.40;1.80;;;;;;;19.36;20.27;95720.45;1740149;82;21276;-61
2021/05/04 11:48:08;;;;;;;2.22;1.60;;;;;;;19.67;21.64;95721.08;1740422;82;21284;-61
2021/05/04 11:50:38;;;;;;;1.92;1.65;;;;;;;19.70;20.96;95718.72;1740279;82;21718;-62
2021/05/04 11:53:15;;;;;;;3.77;1.70;;;;;;;20.57;23.18;95699.27;1741297;81;21122;-62